sensor_id;sensor_type;location;lat;lon;timestamp;P1;durP1;ratioP1;P2;durP2;ratioP2
45011;SDS011;63444;48.148;11.542;2023-09-12T00:02:05;6.88;;;6.28;;
45011;SDS011;63444;48.148;11.542;2023-09-12T00:04:31;7.82;;;7.03;;
45011;SDS011;63444;48.148;11.542;2023-09-12T00:06:56;7.78;;;7.05;;
45011;SDS011;63444;48.148;11.542;2023-09-12T00:09:22;8.45;;;6.15;;
45011;SDS011;63444;48.148;11.542;2023-09-12T00:11:48;7.25;;;6.32;;
45011;SDS011;63444;48.148;11.542;2023-09-12T00:14:16;7.35;;;6.40;;
45011;SDS011;63444;48.148;11.542;2023-09-12T00:16:43;6.82;;;6.22;;
45011;SDS011;63444;48.148;11.542;2023-09-12T00:19:08;7.47;;;6.78;;
45011;SDS011;63444;48.148;11.542;2023-09-12T00:21:34;6.80;;;6.20;;
45011;SDS011;63444;48.148;11.542;2023-09-12T00:24:00;7.32;;;6.63;;
45011;SDS011;63444;48.148;11.542;2023-09-12T00:26:26;7.00;;;6.18;;
45011;SDS011;63444;48.148;11.542;2023-09-12T00:28:51;7.25;;;6.65;;
45011;SDS011;63444;48.148;11.542;2023-09-12T00:31:17;7.70;;;7.00;;
45011;SDS011;63444;48.148;11.542;2023-09-12T00:33:42;7.45;;;6.55;;
45011;SDS011;63444;48.148;11.542;2023-09-12T00:36:08;6.70;;;6.10;;
45011;SDS011;63444;48.148;11.542;2023-09-12T00:38:33;6.75;;;6.15;;
45011;SDS011;63444;48.148;11.542;2023-09-12T00:40:59;7.20;;;6.60;;
45011;SDS011;63444;48.148;11.542;2023-09-12T00:43:25;7.15;;;6.55;;
45011;SDS011;63444;48.148;11.542;2023-09-12T00:45:50;7.25;;;6.65;;
45011;SDS011;63444;48.148;11.542;2023-09-12T00:48:16;6.85;;;6.25;;
45011;SDS011;63444;48.148;11.542;2023-09-12T00:50:43;7.60;;;6.93;;
45011;SDS011;63444;48.148;11.542;2023-09-12T00:53:12;7.20;;;6.43;;
45011;SDS011;63444;48.148;11.542;2023-09-12T00:55:39;7.03;;;6.32;;
45011;SDS011;63444;48.148;11.542;2023-09-12T00:58:10;6.97;;;6.15;;
45011;SDS011;63444;48.148;11.542;2023-09-12T01:00:36;7.85;;;7.15;;
45011;SDS011;63444;48.148;11.542;2023-09-12T01:03:01;7.03;;;6.32;;
45011;SDS011;63444;48.148;11.542;2023-09-12T01:05:28;7.80;;;7.00;;
45011;SDS011;63444;48.148;11.542;2023-09-12T01:07:54;7.72;;;6.97;;
45011;SDS011;63444;48.148;11.542;2023-09-12T01:10:20;7.53;;;6.82;;
45011;SDS011;63444;48.148;11.542;2023-09-12T01:12:45;7.35;;;6.65;;
45011;SDS011;63444;48.148;11.542;2023-09-12T01:15:11;7.63;;;6.93;;
45011;SDS011;63444;48.148;11.542;2023-09-12T01:17:42;7.38;;;6.57;;
45011;SDS011;63444;48.148;11.542;2023-09-12T01:20:14;7.90;;;7.20;;
45011;SDS011;63444;48.148;11.542;2023-09-12T01:27:50;8.23;;;7.43;;
45011;SDS011;63444;48.148;11.542;2023-09-12T01:30:17;8.30;;;7.00;;
45011;SDS011;63444;48.148;11.542;2023-09-12T01:32:45;7.85;;;7.15;;
45011;SDS011;63444;48.148;11.542;2023-09-12T01:35:11;8.65;;;7.78;;
45011;SDS011;63444;48.148;11.542;2023-09-12T01:37:37;7.85;;;7.05;;
45011;SDS011;63444;48.148;11.542;2023-09-12T01:40:02;8.27;;;7.30;;
45011;SDS011;63444;48.148;11.542;2023-09-12T01:42:30;10.30;;;7.47;;
45011;SDS011;63444;48.148;11.542;2023-09-12T01:45:01;8.55;;;7.30;;
45011;SDS011;63444;48.148;11.542;2023-09-12T01:47:28;7.57;;;6.80;;
45011;SDS011;63444;48.148;11.542;2023-09-12T01:49:56;9.35;;;7.50;;
45011;SDS011;63444;48.148;11.542;2023-09-12T01:52:24;8.45;;;7.65;;
45011;SDS011;63444;48.148;11.542;2023-09-12T01:54:50;8.85;;;7.78;;
45011;SDS011;63444;48.148;11.542;2023-09-12T01:57:18;8.32;;;7.50;;
45011;SDS011;63444;48.148;11.542;2023-09-12T01:59:47;8.80;;;8.00;;
45011;SDS011;63444;48.148;11.542;2023-09-12T02:02:14;7.85;;;7.05;;
45011;SDS011;63444;48.148;11.542;2023-09-12T02:04:40;8.57;;;7.78;;
45011;SDS011;63444;48.148;11.542;2023-09-12T02:07:06;7.70;;;7.00;;
45011;SDS011;63444;48.148;11.542;2023-09-12T02:09:32;7.47;;;6.78;;
45011;SDS011;63444;48.148;11.542;2023-09-12T02:11:57;8.25;;;7.43;;
45011;SDS011;63444;48.148;11.542;2023-09-12T02:14:23;8.27;;;7.47;;
45011;SDS011;63444;48.148;11.542;2023-09-12T02:16:48;8.35;;;7.65;;
45011;SDS011;63444;48.148;11.542;2023-09-12T02:19:14;8.10;;;7.30;;
45011;SDS011;63444;48.148;11.542;2023-09-12T02:21:40;7.80;;;7.10;;
45011;SDS011;63444;48.148;11.542;2023-09-12T02:24:06;8.27;;;7.40;;
45011;SDS011;63444;48.148;11.542;2023-09-12T02:26:31;7.97;;;7.22;;
45011;SDS011;63444;48.148;11.542;2023-09-12T02:29:01;8.40;;;7.25;;
45011;SDS011;63444;48.148;11.542;2023-09-12T02:31:27;9.00;;;7.78;;
45011;SDS011;63444;48.148;11.542;2023-09-12T02:33:53;8.00;;;7.20;;
45011;SDS011;63444;48.148;11.542;2023-09-12T02:36:19;8.00;;;7.20;;
45011;SDS011;63444;48.148;11.542;2023-09-12T02:38:45;6.80;;;6.22;;
45011;SDS011;63444;48.148;11.542;2023-09-12T02:41:10;6.90;;;6.30;;
45011;SDS011;63444;48.148;11.542;2023-09-12T02:43:36;6.95;;;6.35;;
45011;SDS011;63444;48.148;11.542;2023-09-12T02:46:01;7.60;;;6.90;;
45011;SDS011;63444;48.148;11.542;2023-09-12T02:48:27;6.90;;;6.30;;
45011;SDS011;63444;48.148;11.542;2023-09-12T02:50:53;7.07;;;6.47;;
45011;SDS011;63444;48.148;11.542;2023-09-12T02:53:18;6.82;;;6.22;;
45011;SDS011;63444;48.148;11.542;2023-09-12T02:55:44;7.38;;;6.72;;
45011;SDS011;63444;48.148;11.542;2023-09-12T02:58:10;7.05;;;6.35;;
45011;SDS011;63444;48.148;11.542;2023-09-12T03:00:39;7.55;;;6.88;;
45011;SDS011;63444;48.148;11.542;2023-09-12T03:03:05;7.15;;;6.55;;
45011;SDS011;63444;48.148;11.542;2023-09-12T03:05:31;6.90;;;6.30;;
45011;SDS011;63444;48.148;11.542;2023-09-12T03:07:57;7.28;;;6.57;;
45011;SDS011;63444;48.148;11.542;2023-09-12T03:10:22;6.78;;;6.18;;
45011;SDS011;63444;48.148;11.542;2023-09-12T03:12:48;7.03;;;6.43;;
45011;SDS011;63444;48.148;11.542;2023-09-12T03:15:13;6.75;;;6.15;;
45011;SDS011;63444;48.148;11.542;2023-09-12T03:17:39;7.45;;;6.63;;
45011;SDS011;63444;48.148;11.542;2023-09-12T03:20:05;7.43;;;6.78;;
45011;SDS011;63444;48.148;11.542;2023-09-12T03:22:33;7.75;;;6.45;;
45011;SDS011;63444;48.148;11.542;2023-09-12T03:25:02;6.97;;;6.13;;
45011;SDS011;63444;48.148;11.542;2023-09-12T03:27:28;7.10;;;6.50;;
45011;SDS011;63444;48.148;11.542;2023-09-12T03:29:54;6.93;;;6.40;;
45011;SDS011;63444;48.148;11.542;2023-09-12T03:32:19;6.95;;;6.35;;
45011;SDS011;63444;48.148;11.542;2023-09-12T03:34:45;6.72;;;6.10;;
45011;SDS011;63444;48.148;11.542;2023-09-12T03:37:11;7.28;;;6.45;;
45011;SDS011;63444;48.148;11.542;2023-09-12T03:39:36;7.60;;;7.00;;
45011;SDS011;63444;48.148;11.542;2023-09-12T03:42:02;7.40;;;6.70;;
45011;SDS011;63444;48.148;11.542;2023-09-12T03:44:28;7.53;;;6.93;;
45011;SDS011;63444;48.148;11.542;2023-09-12T03:46:53;7.18;;;6.57;;
45011;SDS011;63444;48.148;11.542;2023-09-12T03:49:19;7.25;;;6.22;;
45011;SDS011;63444;48.148;11.542;2023-09-12T03:51:44;7.15;;;6.45;;
45011;SDS011;63444;48.148;11.542;2023-09-12T03:54:10;6.90;;;6.22;;
45011;SDS011;63444;48.148;11.542;2023-09-12T03:56:35;8.57;;;6.70;;
45011;SDS011;63444;48.148;11.542;2023-09-12T03:59:01;7.13;;;6.45;;
45011;SDS011;63444;48.148;11.542;2023-09-12T04:01:27;7.45;;;6.75;;
45011;SDS011;63444;48.148;11.542;2023-09-12T04:03:53;7.45;;;6.68;;
45011;SDS011;63444;48.148;11.542;2023-09-12T04:06:19;7.60;;;6.90;;
45011;SDS011;63444;48.148;11.542;2023-09-12T04:08:44;7.45;;;6.75;;
45011;SDS011;63444;48.148;11.542;2023-09-12T04:11:10;7.30;;;6.60;;
45011;SDS011;63444;48.148;11.542;2023-09-12T04:13:36;7.90;;;6.60;;
45011;SDS011;63444;48.148;11.542;2023-09-12T04:16:01;7.82;;;7.10;;
45011;SDS011;63444;48.148;11.542;2023-09-12T04:18:27;7.30;;;6.60;;
45011;SDS011;63444;48.148;11.542;2023-09-12T04:20:53;7.55;;;6.80;;
45011;SDS011;63444;48.148;11.542;2023-09-12T04:23:20;7.47;;;6.78;;
45011;SDS011;63444;48.148;11.542;2023-09-12T04:25:46;7.50;;;6.90;;
45011;SDS011;63444;48.148;11.542;2023-09-12T04:28:12;7.18;;;6.55;;
45011;SDS011;63444;48.148;11.542;2023-09-12T04:30:37;7.20;;;6.47;;
45011;SDS011;63444;48.148;11.542;2023-09-12T04:33:04;7.40;;;6.70;;
45011;SDS011;63444;48.148;11.542;2023-09-12T04:35:32;6.93;;;6.32;;
45011;SDS011;63444;48.148;11.542;2023-09-12T04:37:58;8.23;;;6.85;;
45011;SDS011;63444;48.148;11.542;2023-09-12T04:40:24;7.30;;;6.60;;
45011;SDS011;63444;48.148;11.542;2023-09-12T04:42:49;7.38;;;6.55;;
45011;SDS011;63444;48.148;11.542;2023-09-12T04:45:15;7.30;;;6.70;;
45011;SDS011;63444;48.148;11.542;2023-09-12T04:47:41;7.40;;;6.60;;
45011;SDS011;63444;48.148;11.542;2023-09-12T04:50:06;7.80;;;7.10;;
45011;SDS011;63444;48.148;11.542;2023-09-12T04:52:32;7.60;;;7.00;;
45011;SDS011;63444;48.148;11.542;2023-09-12T04:54:58;7.03;;;6.20;;
45011;SDS011;63444;48.148;11.542;2023-09-12T04:57:23;7.43;;;6.72;;
45011;SDS011;63444;48.148;11.542;2023-09-12T04:59:50;7.13;;;6.53;;
45011;SDS011;63444;48.148;11.542;2023-09-12T05:02:16;7.28;;;6.57;;
45011;SDS011;63444;48.148;11.542;2023-09-12T05:04:41;8.95;;;7.07;;
45011;SDS011;63444;48.148;11.542;2023-09-12T05:07:07;7.35;;;6.70;;
45011;SDS011;63444;48.148;11.542;2023-09-12T05:09:33;7.30;;;6.60;;
45011;SDS011;63444;48.148;11.542;2023-09-12T05:11:58;7.90;;;7.10;;
45011;SDS011;63444;48.148;11.542;2023-09-12T05:14:24;9.05;;;6.35;;
45011;SDS011;63444;48.148;11.542;2023-09-12T05:16:49;7.45;;;6.70;;
45011;SDS011;63444;48.148;11.542;2023-09-12T05:19:15;7.40;;;6.80;;
45011;SDS011;63444;48.148;11.542;2023-09-12T05:21:40;8.63;;;6.82;;
45011;SDS011;63444;48.148;11.542;2023-09-12T05:24:06;7.18;;;6.55;;
45011;SDS011;63444;48.148;11.542;2023-09-12T05:26:31;8.95;;;7.15;;
45011;SDS011;63444;48.148;11.542;2023-09-12T05:28:57;7.20;;;6.57;;
45011;SDS011;63444;48.148;11.542;2023-09-12T05:31:23;8.00;;;7.30;;
45011;SDS011;63444;48.148;11.542;2023-09-12T05:33:48;7.55;;;6.95;;
45011;SDS011;63444;48.148;11.542;2023-09-12T05:36:14;8.82;;;7.32;;
45011;SDS011;63444;48.148;11.542;2023-09-12T05:38:39;8.77;;;7.88;;
45011;SDS011;63444;48.148;11.542;2023-09-12T05:41:05;8.23;;;7.15;;
45011;SDS011;63444;48.148;11.542;2023-09-12T05:43:31;7.38;;;6.78;;
45011;SDS011;63444;48.148;11.542;2023-09-12T05:45:56;7.85;;;7.05;;
45011;SDS011;63444;48.148;11.542;2023-09-12T05:48:23;7.63;;;6.93;;
45011;SDS011;63444;48.148;11.542;2023-09-12T05:50:48;7.25;;;6.53;;
45011;SDS011;63444;48.148;11.542;2023-09-12T05:53:14;8.68;;;7.78;;
45011;SDS011;63444;48.148;11.542;2023-09-12T05:55:39;8.32;;;7.55;;
45011;SDS011;63444;48.148;11.542;2023-09-12T05:58:05;8.45;;;7.22;;
45011;SDS011;63444;48.148;11.542;2023-09-12T06:00:31;7.57;;;6.90;;
45011;SDS011;63444;48.148;11.542;2023-09-12T06:02:57;8.15;;;7.05;;
45011;SDS011;63444;48.148;11.542;2023-09-12T06:05:23;7.93;;;7.20;;
45011;SDS011;63444;48.148;11.542;2023-09-12T06:07:49;8.13;;;7.30;;
45011;SDS011;63444;48.148;11.542;2023-09-12T06:10:14;10.40;;;6.90;;
45011;SDS011;63444;48.148;11.542;2023-09-12T06:12:40;8.48;;;7.13;;
45011;SDS011;63444;48.148;11.542;2023-09-12T06:15:06;8.32;;;7.53;;
45011;SDS011;63444;48.148;11.542;2023-09-12T06:17:31;8.20;;;7.40;;
45011;SDS011;63444;48.148;11.542;2023-09-12T06:19:57;7.93;;;7.15;;
45011;SDS011;63444;48.148;11.542;2023-09-12T06:22:23;8.13;;;6.72;;
45011;SDS011;63444;48.148;11.542;2023-09-12T06:24:52;8.55;;;6.65;;
45011;SDS011;63444;48.148;11.542;2023-09-12T06:27:18;6.75;;;6.15;;
45011;SDS011;63444;48.148;11.542;2023-09-12T06:29:47;6.63;;;6.03;;
45011;SDS011;63444;48.148;11.542;2023-09-12T06:32:13;6.85;;;6.05;;
45011;SDS011;63444;48.148;11.542;2023-09-12T06:34:40;10.20;;;6.38;;
45011;SDS011;63444;48.148;11.542;2023-09-12T06:37:06;7.32;;;6.65;;
45011;SDS011;63444;48.148;11.542;2023-09-12T06:39:31;7.20;;;6.50;;
45011;SDS011;63444;48.148;11.542;2023-09-12T06:41:57;7.60;;;6.40;;
45011;SDS011;63444;48.148;11.542;2023-09-12T06:44:22;7.43;;;6.70;;
45011;SDS011;63444;48.148;11.542;2023-09-12T06:46:48;8.05;;;6.55;;
45011;SDS011;63444;48.148;11.542;2023-09-12T06:49:13;7.07;;;6.32;;
45011;SDS011;63444;48.148;11.542;2023-09-12T06:51:39;6.97;;;6.28;;
45011;SDS011;63444;48.148;11.542;2023-09-12T06:54:04;7.18;;;6.38;;
45011;SDS011;63444;48.148;11.542;2023-09-12T06:56:30;6.95;;;5.97;;
45011;SDS011;63444;48.148;11.542;2023-09-12T06:58:56;7.72;;;6.55;;
45011;SDS011;63444;48.148;11.542;2023-09-12T07:01:22;6.63;;;6.03;;
45011;SDS011;63444;48.148;11.542;2023-09-12T07:03:48;6.20;;;5.70;;
45011;SDS011;63444;48.148;11.542;2023-09-12T07:06:18;6.75;;;6.00;;
45011;SDS011;63444;48.148;11.542;2023-09-12T07:08:44;6.38;;;5.82;;
45011;SDS011;63444;48.148;11.542;2023-09-12T07:11:09;6.70;;;6.00;;
45011;SDS011;63444;48.148;11.542;2023-09-12T07:13:35;9.02;;;5.90;;
45011;SDS011;63444;48.148;11.542;2023-09-12T07:16:00;6.22;;;5.63;;
45011;SDS011;63444;48.148;11.542;2023-09-12T07:18:29;6.30;;;5.70;;
45011;SDS011;63444;48.148;11.542;2023-09-12T07:20:58;6.00;;;5.40;;
45011;SDS011;63444;48.148;11.542;2023-09-12T07:23:25;6.28;;;5.70;;
45011;SDS011;63444;48.148;11.542;2023-09-12T07:25:50;8.15;;;5.75;;
45011;SDS011;63444;48.148;11.542;2023-09-12T07:28:16;7.85;;;5.82;;
45011;SDS011;63444;48.148;11.542;2023-09-12T07:30:45;6.18;;;5.63;;
45011;SDS011;63444;48.148;11.542;2023-09-12T07:33:11;7.80;;;5.22;;
45011;SDS011;63444;48.148;11.542;2023-09-12T07:35:36;7.55;;;5.03;;
45011;SDS011;63444;48.148;11.542;2023-09-12T07:38:02;6.60;;;5.10;;
45011;SDS011;63444;48.148;11.542;2023-09-12T07:40:28;5.85;;;5.25;;
45011;SDS011;63444;48.148;11.542;2023-09-12T07:42:54;6.85;;;5.65;;
45011;SDS011;63444;48.148;11.542;2023-09-12T07:45:20;5.85;;;5.13;;
45011;SDS011;63444;48.148;11.542;2023-09-12T07:47:46;5.75;;;5.15;;
45011;SDS011;63444;48.148;11.542;2023-09-12T07:50:11;5.65;;;4.93;;
45011;SDS011;63444;48.148;11.542;2023-09-12T07:52:37;7.43;;;5.05;;
45011;SDS011;63444;48.148;11.542;2023-09-12T07:55:02;5.50;;;4.78;;
45011;SDS011;63444;48.148;11.542;2023-09-12T07:57:29;6.80;;;5.10;;
45011;SDS011;63444;48.148;11.542;2023-09-12T07:59:55;5.82;;;5.22;;
45011;SDS011;63444;48.148;11.542;2023-09-12T08:02:21;5.32;;;4.85;;
45011;SDS011;63444;48.148;11.542;2023-09-12T08:04:48;5.18;;;4.65;;
45011;SDS011;63444;48.148;11.542;2023-09-12T08:07:15;5.57;;;5.07;;
45011;SDS011;63444;48.148;11.542;2023-09-12T08:09:51;5.22;;;4.82;;
45011;SDS011;63444;48.148;11.542;2023-09-12T08:12:22;6.22;;;4.95;;
45011;SDS011;63444;48.148;11.542;2023-09-12T08:14:49;6.18;;;5.25;;
45011;SDS011;63444;48.148;11.542;2023-09-12T08:17:14;6.45;;;5.32;;
45011;SDS011;63444;48.148;11.542;2023-09-12T08:19:40;5.60;;;4.47;;
45011;SDS011;63444;48.148;11.542;2023-09-12T08:22:07;6.53;;;5.05;;
45011;SDS011;63444;48.148;11.542;2023-09-12T08:24:34;6.40;;;4.43;;
45011;SDS011;63444;48.148;11.542;2023-09-12T08:27:00;7.75;;;4.50;;
45011;SDS011;63444;48.148;11.542;2023-09-12T08:29:27;5.47;;;4.90;;
45011;SDS011;63444;48.148;11.542;2023-09-12T08:31:53;6.80;;;4.70;;
45011;SDS011;63444;48.148;11.542;2023-09-12T08:34:22;4.97;;;4.47;;
45011;SDS011;63444;48.148;11.542;2023-09-12T08:36:48;6.72;;;4.70;;
45011;SDS011;63444;48.148;11.542;2023-09-12T08:39:14;5.47;;;4.90;;
45011;SDS011;63444;48.148;11.542;2023-09-12T08:41:41;5.47;;;4.57;;
45011;SDS011;63444;48.148;11.542;2023-09-12T08:44:07;5.88;;;4.72;;
45011;SDS011;63444;48.148;11.542;2023-09-12T08:46:34;5.45;;;4.95;;
45011;SDS011;63444;48.148;11.542;2023-09-12T08:49:02;4.30;;;3.90;;
45011;SDS011;63444;48.148;11.542;2023-09-12T08:51:31;5.60;;;4.68;;
45011;SDS011;63444;48.148;11.542;2023-09-12T08:53:57;5.68;;;4.82;;
45011;SDS011;63444;48.148;11.542;2023-09-12T08:56:23;4.82;;;4.43;;
45011;SDS011;63444;48.148;11.542;2023-09-12T08:58:49;6.38;;;4.90;;
45011;SDS011;63444;48.148;11.542;2023-09-12T09:01:16;5.18;;;4.68;;
45011;SDS011;63444;48.148;11.542;2023-09-12T09:03:44;5.53;;;4.68;;
45011;SDS011;63444;48.148;11.542;2023-09-12T09:06:10;5.85;;;5.00;;
45011;SDS011;63444;48.148;11.542;2023-09-12T09:08:37;5.18;;;4.60;;
45011;SDS011;63444;48.148;11.542;2023-09-12T09:11:04;5.13;;;4.43;;
45011;SDS011;63444;48.148;11.542;2023-09-12T09:13:31;5.25;;;4.85;;
45011;SDS011;63444;48.148;11.542;2023-09-12T09:16:11;4.78;;;4.35;;
45011;SDS011;63444;48.148;11.542;2023-09-12T09:18:57;4.05;;;3.75;;
45011;SDS011;63444;48.148;11.542;2023-09-12T09:21:30;4.78;;;4.38;;
45011;SDS011;63444;48.148;11.542;2023-09-12T09:24:01;5.35;;;4.70;;
45011;SDS011;63444;48.148;11.542;2023-09-12T09:26:41;4.90;;;4.50;;
45011;SDS011;63444;48.148;11.542;2023-09-12T09:29:25;5.40;;;4.90;;
45011;SDS011;63444;48.148;11.542;2023-09-12T09:31:56;4.88;;;4.47;;
45011;SDS011;63444;48.148;11.542;2023-09-12T09:34:23;5.65;;;4.60;;
45011;SDS011;63444;48.148;11.542;2023-09-12T09:36:49;7.82;;;5.40;;
45011;SDS011;63444;48.148;11.542;2023-09-12T09:39:17;6.65;;;4.88;;
45011;SDS011;63444;48.148;11.542;2023-09-12T09:41:47;6.70;;;5.20;;
45011;SDS011;63444;48.148;11.542;2023-09-12T09:44:18;5.63;;;4.82;;
45011;SDS011;63444;48.148;11.542;2023-09-12T09:46:45;5.38;;;4.88;;
45011;SDS011;63444;48.148;11.542;2023-09-12T09:49:14;5.80;;;4.72;;
45011;SDS011;63444;48.148;11.542;2023-09-12T09:51:43;5.60;;;4.78;;
45011;SDS011;63444;48.148;11.542;2023-09-12T09:54:09;5.00;;;4.60;;
45011;SDS011;63444;48.148;11.542;2023-09-12T09:59:16;4.90;;;4.47;;
45011;SDS011;63444;48.148;11.542;2023-09-12T10:01:43;6.22;;;4.97;;
45011;SDS011;63444;48.148;11.542;2023-09-12T10:04:10;4.63;;;4.30;;
45011;SDS011;63444;48.148;11.542;2023-09-12T10:06:36;5.13;;;4.47;;
45011;SDS011;63444;48.148;11.542;2023-09-12T10:09:09;5.07;;;4.68;;
45011;SDS011;63444;48.148;11.542;2023-09-12T10:11:37;5.43;;;4.95;;
45011;SDS011;63444;48.148;11.542;2023-09-12T10:14:04;5.25;;;4.75;;
45011;SDS011;63444;48.148;11.542;2023-09-12T10:16:31;4.90;;;4.53;;
45011;SDS011;63444;48.148;11.542;2023-09-12T10:19:13;5.05;;;4.65;;
45011;SDS011;63444;48.148;11.542;2023-09-12T10:21:58;4.63;;;4.22;;
45011;SDS011;63444;48.148;11.542;2023-09-12T10:24:35;5.47;;;4.38;;
45011;SDS011;63444;48.148;11.542;2023-09-12T10:27:01;5.13;;;4.20;;
45011;SDS011;63444;48.148;11.542;2023-09-12T10:29:28;4.60;;;4.20;;
45011;SDS011;63444;48.148;11.542;2023-09-12T10:31:55;6.75;;;4.53;;
45011;SDS011;63444;48.148;11.542;2023-09-12T10:34:21;4.88;;;4.40;;
45011;SDS011;63444;48.148;11.542;2023-09-12T10:36:50;5.43;;;4.13;;
45011;SDS011;63444;48.148;11.542;2023-09-12T10:39:17;4.95;;;4.13;;
45011;SDS011;63444;48.148;11.542;2023-09-12T10:41:44;4.97;;;4.57;;
45011;SDS011;63444;48.148;11.542;2023-09-12T10:44:14;5.32;;;4.80;;
45011;SDS011;63444;48.148;11.542;2023-09-12T10:46:41;4.93;;;4.53;;
45011;SDS011;63444;48.148;11.542;2023-09-12T10:49:08;5.60;;;5.07;;
45011;SDS011;63444;48.148;11.542;2023-09-12T10:51:39;5.55;;;4.90;;
45011;SDS011;63444;48.148;11.542;2023-09-12T10:54:06;4.63;;;4.22;;
45011;SDS011;63444;48.148;11.542;2023-09-12T10:56:33;5.18;;;4.60;;
45011;SDS011;63444;48.148;11.542;2023-09-12T11:01:41;4.97;;;4.47;;
45011;SDS011;63444;48.148;11.542;2023-09-12T11:06:48;4.90;;;4.50;;
45011;SDS011;63444;48.148;11.542;2023-09-12T11:09:18;5.82;;;4.47;;
45011;SDS011;63444;48.148;11.542;2023-09-12T11:11:47;5.03;;;4.60;;
45011;SDS011;63444;48.148;11.542;2023-09-12T11:14:15;6.18;;;4.47;;
45011;SDS011;63444;48.148;11.542;2023-09-12T11:17:03;4.65;;;4.20;;
45011;SDS011;63444;48.148;11.542;2023-09-12T11:19:51;5.45;;;4.88;;
45011;SDS011;63444;48.148;11.542;2023-09-12T11:22:24;5.22;;;4.78;;
45011;SDS011;63444;48.148;11.542;2023-09-12T11:24:50;4.80;;;4.38;;
45011;SDS011;63444;48.148;11.542;2023-09-12T11:27:16;5.72;;;4.30;;
45011;SDS011;63444;48.148;11.542;2023-09-12T11:29:42;5.18;;;4.28;;
45011;SDS011;63444;48.148;11.542;2023-09-12T11:32:08;4.78;;;4.28;;
45011;SDS011;63444;48.148;11.542;2023-09-12T11:34:41;4.95;;;3.85;;
45011;SDS011;63444;48.148;11.542;2023-09-12T11:37:08;4.75;;;4.32;;
45011;SDS011;63444;48.148;11.542;2023-09-12T11:39:35;4.90;;;4.30;;
45011;SDS011;63444;48.148;11.542;2023-09-12T11:42:02;4.57;;;4.00;;
45011;SDS011;63444;48.148;11.542;2023-09-12T11:44:30;4.68;;;4.28;;
45011;SDS011;63444;48.148;11.542;2023-09-12T11:46:57;4.70;;;4.30;;
45011;SDS011;63444;48.148;11.542;2023-09-12T11:49:37;4.72;;;4.00;;
45011;SDS011;63444;48.148;11.542;2023-09-12T11:52:07;4.05;;;3.75;;
45011;SDS011;63444;48.148;11.542;2023-09-12T11:54:38;4.30;;;3.92;;
45011;SDS011;63444;48.148;11.542;2023-09-12T11:57:06;5.22;;;4.55;;
45011;SDS011;63444;48.148;11.542;2023-09-12T11:59:36;5.40;;;4.35;;
45011;SDS011;63444;48.148;11.542;2023-09-12T12:02:06;5.03;;;4.22;;
45011;SDS011;63444;48.148;11.542;2023-09-12T12:04:35;4.90;;;4.40;;
45011;SDS011;63444;48.148;11.542;2023-09-12T12:07:02;5.57;;;4.55;;
45011;SDS011;63444;48.148;11.542;2023-09-12T12:09:31;5.80;;;4.68;;
45011;SDS011;63444;48.148;11.542;2023-09-12T12:12:03;4.60;;;4.15;;
45011;SDS011;63444;48.148;11.542;2023-09-12T12:14:30;5.70;;;4.85;;
45011;SDS011;63444;48.148;11.542;2023-09-12T12:17:04;5.43;;;4.28;;
45011;SDS011;63444;48.148;11.542;2023-09-12T12:19:32;4.60;;;4.20;;
45011;SDS011;63444;48.148;11.542;2023-09-12T12:21:58;8.65;;;4.45;;
45011;SDS011;63444;48.148;11.542;2023-09-12T12:24:24;4.40;;;4.00;;
45011;SDS011;63444;48.148;11.542;2023-09-12T12:26:49;4.72;;;4.32;;
45011;SDS011;63444;48.148;11.542;2023-09-12T12:29:15;5.20;;;4.00;;
45011;SDS011;63444;48.148;11.542;2023-09-12T12:31:40;4.22;;;3.83;;
45011;SDS011;63444;48.148;11.542;2023-09-12T12:34:06;4.45;;;4.00;;
45011;SDS011;63444;48.148;11.542;2023-09-12T12:36:32;4.32;;;4.03;;
45011;SDS011;63444;48.148;11.542;2023-09-12T12:38:57;4.38;;;3.97;;
45011;SDS011;63444;48.148;11.542;2023-09-12T12:43:51;4.82;;;4.32;;
45011;SDS011;63444;48.148;11.542;2023-09-12T12:46:17;5.20;;;4.45;;
45011;SDS011;63444;48.148;11.542;2023-09-12T12:48:44;4.43;;;4.03;;
45011;SDS011;63444;48.148;11.542;2023-09-12T12:53:42;5.32;;;4.10;;
45011;SDS011;63444;48.148;11.542;2023-09-12T12:56:13;4.25;;;3.85;;
45011;SDS011;63444;48.148;11.542;2023-09-12T12:58:44;4.13;;;3.75;;
45011;SDS011;63444;48.148;11.542;2023-09-12T13:01:21;5.57;;;4.30;;
45011;SDS011;63444;48.148;11.542;2023-09-12T13:03:47;4.50;;;4.10;;
45011;SDS011;63444;48.148;11.542;2023-09-12T13:06:15;4.93;;;4.20;;
45011;SDS011;63444;48.148;11.542;2023-09-12T13:08:43;4.93;;;4.53;;
45011;SDS011;63444;48.148;11.542;2023-09-12T13:11:10;6.22;;;4.50;;
45011;SDS011;63444;48.148;11.542;2023-09-12T13:13:36;4.88;;;4.47;;
45011;SDS011;63444;48.148;11.542;2023-09-12T13:16:03;5.47;;;4.57;;
45011;SDS011;63444;48.148;11.542;2023-09-12T13:18:33;6.07;;;4.95;;
45011;SDS011;63444;48.148;11.542;2023-09-12T13:20:58;4.80;;;4.38;;
45011;SDS011;63444;48.148;11.542;2023-09-12T13:23:24;4.88;;;4.40;;
45011;SDS011;63444;48.148;11.542;2023-09-12T13:25:51;5.03;;;4.57;;
45011;SDS011;63444;48.148;11.542;2023-09-12T13:28:17;4.53;;;4.13;;
45011;SDS011;63444;48.148;11.542;2023-09-12T13:30:42;6.35;;;4.30;;
45011;SDS011;63444;48.148;11.542;2023-09-12T13:33:09;4.72;;;4.10;;
45011;SDS011;63444;48.148;11.542;2023-09-12T13:35:36;4.82;;;4.35;;
45011;SDS011;63444;48.148;11.542;2023-09-12T13:38:02;5.15;;;4.60;;
45011;SDS011;63444;48.148;11.542;2023-09-12T13:40:34;5.53;;;4.55;;
45011;SDS011;63444;48.148;11.542;2023-09-12T13:43:01;6.43;;;4.60;;
45011;SDS011;63444;48.148;11.542;2023-09-12T13:45:27;4.68;;;4.25;;
45011;SDS011;63444;48.148;11.542;2023-09-12T13:47:53;4.80;;;4.28;;
45011;SDS011;63444;48.148;11.542;2023-09-12T13:50:19;5.45;;;4.55;;
45011;SDS011;63444;48.148;11.542;2023-09-12T13:52:44;5.68;;;4.63;;
45011;SDS011;63444;48.148;11.542;2023-09-12T13:55:10;4.82;;;4.43;;
45011;SDS011;63444;48.148;11.542;2023-09-12T13:57:39;6.13;;;4.63;;
45011;SDS011;63444;48.148;11.542;2023-09-12T14:00:04;4.65;;;4.25;;
45011;SDS011;63444;48.148;11.542;2023-09-12T14:02:31;5.25;;;4.53;;
45011;SDS011;63444;48.148;11.542;2023-09-12T14:04:57;5.53;;;4.60;;
45011;SDS011;63444;48.148;11.542;2023-09-12T14:07:23;4.95;;;4.55;;
45011;SDS011;63444;48.148;11.542;2023-09-12T14:09:49;6.15;;;5.15;;
45011;SDS011;63444;48.148;11.542;2023-09-12T14:12:17;5.90;;;4.88;;
45011;SDS011;63444;48.148;11.542;2023-09-12T14:14:43;5.28;;;4.65;;
45011;SDS011;63444;48.148;11.542;2023-09-12T14:17:09;5.32;;;4.80;;
45011;SDS011;63444;48.148;11.542;2023-09-12T14:19:35;5.30;;;4.55;;
45011;SDS011;63444;48.148;11.542;2023-09-12T14:22:00;5.28;;;4.78;;
45011;SDS011;63444;48.148;11.542;2023-09-12T14:24:26;4.93;;;4.53;;
45011;SDS011;63444;48.148;11.542;2023-09-12T14:26:51;4.90;;;4.50;;
45011;SDS011;63444;48.148;11.542;2023-09-12T14:29:17;5.63;;;4.55;;
45011;SDS011;63444;48.148;11.542;2023-09-12T14:31:43;5.78;;;4.40;;
45011;SDS011;63444;48.148;11.542;2023-09-12T14:34:15;5.45;;;4.93;;
45011;SDS011;63444;48.148;11.542;2023-09-12T14:36:43;6.60;;;4.90;;
45011;SDS011;63444;48.148;11.542;2023-09-12T14:39:11;5.60;;;4.57;;
45011;SDS011;63444;48.148;11.542;2023-09-12T14:41:37;6.97;;;5.95;;
45011;SDS011;63444;48.148;11.542;2023-09-12T14:44:02;5.70;;;5.20;;
45011;SDS011;63444;48.148;11.542;2023-09-12T14:46:30;5.47;;;4.97;;
45011;SDS011;63444;48.148;11.542;2023-09-12T14:48:55;7.68;;;4.90;;
45011;SDS011;63444;48.148;11.542;2023-09-12T14:51:21;6.32;;;4.70;;